Pagrindinis puslapis
METAR-TAF:

METAR-TAF

Oro uostai :

Mendosa, Argentina

platuma: 32-50S, ilguma: 068-47W, Aukštis: 705 m

Dabartinis oras

Ataskaita buvo paskelbta 58 minutes, ne 20:00 UTC
Vėjas 7 kt iš Šiaurės Rytų
Temperatūra 17°C
Drėgmė 10%
Slėgis 1014 hPa
Matomumas 10 km arba daugiau
nėra debesų žemiau 1500 m ir nėra kamuolinių lietaus debesų

METAR: SAME 192000Z 05007KT CAVOK 17/M15 Q1014

Laikas: 17:58 (20:58 UTC)

Prognozė

Ataskaita buvo paskelbta 3 valandos ir 58 minutes, ne 17:00 UTC
Prognozė galioja nuo 19 metu 18 UTC su 20 metu 18 UTC
Vėjas 5 kt iš Pietryčių
Matomumas 10 km arba daugiau
nėra debesų žemiau 1500 m ir nėra kamuolinių lietaus debesų
Tapsmas
nuo 20 metu 01 UTC su 20 metu 03 UTC
Vėjas 5 kt iš Pietų/Pietvakarių
Tapsmas
nuo 20 metu 14 UTC su 20 metu 16 UTC
Vėjas 10 kt iš Šiaurės

TAF: SAME 191700Z 1918/2018 14005KT CAVOK TX16/1920Z TN03/2010Z BECMG 2001/2003 20005KT BECMG 2014/2016 36010KT

Orai ataskaitas ir orų prognozės (METAR, TAF).

turimą stotys yra geltonos ir raudonos taškus žemėlapyje.

Perkelti pele per norėdami pamatyti stoties vardą.

Tada spustelėkite, norėdami matyti oro stebėjimo ir prognozės.

Norėdami pakeisti žemėlapį: spustelėkite ant žalios mygtukų su juodo kryžiaus žemyn,; žalią mygtuką su brūkšneliu, jei norite nutolinti; arba žalių rodyklių gretimoms žemėlapius.


METAR-TAF: